createdAt,value
2023-03-30T00:01:12.083Z,100571.55
2023-03-30T00:03:47.542Z,100568.98
2023-03-30T00:06:23.617Z,100564.66
2023-03-30T00:08:57.442Z,100561.89
2023-03-30T00:11:27.290Z,100563.28
2023-03-30T00:13:55.575Z,100562.95
2023-03-30T00:16:23.922Z,100565.88
2023-03-30T00:18:52.043Z,100566.93
2023-03-30T00:21:21.068Z,100566.93
2023-03-30T00:23:50.218Z,100563.64
2023-03-30T00:26:18.631Z,100562.96
2023-03-30T00:28:46.810Z,100562.79
2023-03-30T00:31:14.999Z,100561.24
2023-03-30T00:33:47.085Z,100558.48
2023-03-30T00:36:16.570Z,100557.11
2023-03-30T00:38:46.211Z,100554.71
2023-03-30T00:41:15.137Z,100553.15
2023-03-30T00:44:42.422Z,100553.84
2023-03-30T00:47:10.613Z,100551.77
2023-03-30T00:49:39.388Z,100550.23
2023-03-30T00:52:10.073Z,100548.85
2023-03-30T00:54:39.687Z,100545.58
2023-03-30T00:57:08.818Z,100545.91
2023-03-30T00:59:37.125Z,100547.46
2023-03-30T01:02:06.273Z,100541.75
2023-03-30T01:04:37.658Z,100541.58
2023-03-30T01:07:07.850Z,100543.31
2023-03-30T01:09:36.076Z,100545.38
2023-03-30T01:12:05.510Z,100544.50
2023-03-30T01:14:34.265Z,100544.67
2023-03-30T01:17:16.865Z,100541.39
2023-03-30T01:20:13.004Z,100542.42
2023-03-30T01:23:04.489Z,100538.30
2023-03-30T01:25:57.320Z,100532.25
2023-03-30T01:28:41.872Z,100531.58
2023-03-30T01:31:43.858Z,100535.01
2023-03-30T01:34:43.317Z,100531.90
2023-03-30T01:37:50.535Z,100529.29
2023-03-30T01:40:27.927Z,100526.35
2023-03-30T01:43:05.518Z,100527.70
2023-03-30T01:45:47.664Z,100528.20
2023-03-30T01:48:45.618Z,100524.55
2023-03-30T01:51:27.337Z,100522.65
2023-03-30T01:53:59.458Z,100524.02
2023-03-30T01:56:31.529Z,100518.14
2023-03-30T01:59:12.649Z,100517.29
2023-03-30T02:01:43.064Z,100514.02
2023-03-30T02:04:12.444Z,100512.64
2023-03-30T02:06:48.781Z,100511.27
2023-03-30T02:09:22.033Z,100509.89
2023-03-30T02:11:53.713Z,100511.10
2023-03-30T02:14:27.556Z,100513.02
2023-03-30T02:17:03.426Z,100514.23
2023-03-30T02:19:31.758Z,100510.45
2023-03-30T02:22:01.260Z,100512.18
2023-03-30T02:24:32.383Z,100512.88
2023-03-30T02:27:04.339Z,100510.63
2023-03-30T02:29:37.536Z,100505.30
2023-03-30T02:32:06.185Z,100507.71
2023-03-30T02:34:43.815Z,100508.58
2023-03-30T02:37:34.041Z,100514.28
2023-03-30T02:40:14.287Z,100512.04
2023-03-30T02:43:03.565Z,100515.50
2023-03-30T02:45:58.815Z,100509.29
2023-03-30T02:48:30.035Z,100509.80
2023-03-30T02:51:13.960Z,100508.95
2023-03-30T02:54:36.032Z,100506.36
2023-03-30T02:57:43.962Z,100502.90
2023-03-30T03:00:43.594Z,100496.85
2023-03-30T03:03:21.408Z,100492.66
2023-03-30T03:05:56.320Z,100490.95
2023-03-30T03:08:35.641Z,100488.02
2023-03-30T03:11:04.843Z,100483.52
2023-03-30T03:13:36.844Z,100482.98
2023-03-30T03:16:08.013Z,100477.80
2023-03-30T03:18:40.033Z,100478.69
2023-03-30T03:21:09.972Z,100475.56
2023-03-30T03:23:38.341Z,100475.91
2023-03-30T03:26:12.756Z,100472.82
2023-03-30T03:28:40.972Z,100465.91
2023-03-30T03:31:09.390Z,100462.11
2023-03-30T03:33:37.777Z,100461.06
2023-03-30T03:36:17.074Z,100458.48
2023-03-30T03:38:52.313Z,100455.90
2023-03-30T03:41:20.641Z,100454.70
2023-03-30T03:43:48.918Z,100451.08
2023-03-30T03:46:18.520Z,100449.00
2023-03-30T03:48:47.456Z,100446.08
2023-03-30T03:51:15.565Z,100440.39
2023-03-30T03:53:43.900Z,100439.52
2023-03-30T03:56:14.887Z,100439.34
2023-03-30T03:58:43.211Z,100438.66
2023-03-30T04:01:14.598Z,100442.80
2023-03-30T04:03:42.947Z,100438.65
2023-03-30T04:06:11.474Z,100437.59
2023-03-30T04:08:39.749Z,100443.30
2023-03-30T04:11:27.522Z,100443.51
2023-03-30T04:14:19.362Z,100441.12
2023-03-30T04:17:15.003Z,100439.45
2023-03-30T04:20:12.701Z,100438.10
2023-03-30T04:22:57.138Z,100433.66
2023-03-30T04:25:29.313Z,100433.67
2023-03-30T04:28:35.136Z,100432.48
2023-03-30T04:31:24.072Z,100433.17
2023-03-30T04:34:09.535Z,100432.67
2023-03-30T04:36:37.997Z,100428.86
2023-03-30T04:39:30.230Z,100427.14
2023-03-30T04:42:14.339Z,100423.53
2023-03-30T04:45:07.408Z,100424.20
2023-03-30T04:48:10.291Z,100419.89
2023-03-30T04:50:57.149Z,100414.90
2023-03-30T04:53:34.455Z,100410.74
2023-03-30T04:56:22.067Z,100410.05
2023-03-30T04:59:03.171Z,100409.35
2023-03-30T05:01:50.040Z,100405.05
2023-03-30T05:04:32.777Z,100403.84
2023-03-30T05:07:19.749Z,100402.63
2023-03-30T05:10:02.599Z,100401.05
2023-03-30T05:13:00.039Z,100397.77
2023-03-30T05:15:55.827Z,100401.40
2023-03-30T05:18:39.416Z,100398.79
2023-03-30T05:21:10.488Z,100398.61
2023-03-30T05:24:17.065Z,100394.11
2023-03-30T05:27:00.546Z,100395.47
2023-03-30T05:29:55.589Z,100396.48
2023-03-30T05:32:44.329Z,100404.57
2023-03-30T05:35:38.434Z,100405.77
2023-03-30T05:38:07.627Z,100402.48
2023-03-30T05:40:54.609Z,100399.86
2023-03-30T05:43:42.054Z,100398.33
2023-03-30T05:46:10.250Z,100398.32
2023-03-30T05:48:51.712Z,100399.00
2023-03-30T05:51:42.932Z,100396.06
2023-03-30T05:54:30.122Z,100396.04
2023-03-30T05:57:17.363Z,100390.49
2023-03-30T05:59:55.754Z,100388.22
2023-03-30T06:02:40.822Z,100390.92
2023-03-30T06:05:14.499Z,100388.82
2023-03-30T06:07:45.802Z,100382.59
2023-03-30T06:10:14.159Z,100379.77
2023-03-30T06:12:43.873Z,100381.95
2023-03-30T06:15:24.355Z,100384.48
2023-03-30T06:20:56.289Z,100382.29
2023-03-30T06:23:25.021Z,100382.58
2023-03-30T06:25:55.674Z,100378.36
2023-03-30T06:28:29.928Z,100379.02
2023-03-30T06:30:58.375Z,100381.23
2023-03-30T06:33:27.731Z,100378.40
2023-03-30T06:36:01.635Z,100375.77
2023-03-30T06:38:30.460Z,100377.96
2023-03-30T06:40:58.768Z,100380.19
2023-03-30T06:43:28.260Z,100379.27
2023-03-30T06:46:03.981Z,100380.09
2023-03-30T06:48:32.547Z,100379.36
2023-03-30T06:51:26.649Z,100379.67
2023-03-30T06:53:54.873Z,100378.77
2023-03-30T06:56:23.231Z,100377.88
2023-03-30T06:59:05.528Z,100376.80
2023-03-30T07:01:37.231Z,100376.70
2023-03-30T07:04:35.093Z,100375.95
2023-03-30T07:07:23.077Z,100373.46
2023-03-30T07:09:51.292Z,100373.73
2023-03-30T07:12:19.670Z,100374.69
2023-03-30T07:14:48.134Z,100374.45
2023-03-30T07:17:16.983Z,100373.19
2023-03-30T07:19:45.414Z,100372.63
2023-03-30T07:22:14.567Z,100372.58
2023-03-30T07:24:43.206Z,100369.36
2023-03-30T07:27:11.494Z,100365.80
2023-03-30T07:29:43.143Z,100361.04
2023-03-30T07:32:11.651Z,100356.80
2023-03-30T07:34:40.103Z,100354.67
2023-03-30T07:37:08.540Z,100349.42
2023-03-30T07:39:38.130Z,100349.72
2023-03-30T07:42:06.455Z,100349.98
2023-03-30T07:44:35.391Z,100349.91
2023-03-30T07:47:07.284Z,100348.30
2023-03-30T07:49:36.316Z,100348.77
2023-03-30T07:52:04.412Z,100345.41
2023-03-30T07:54:51.314Z,100343.27
2023-03-30T07:57:24.102Z,100341.80
2023-03-30T07:59:52.849Z,100341.73
2023-03-30T08:02:42.424Z,100341.83
2023-03-30T08:05:13.073Z,100342.39
2023-03-30T08:07:49.049Z,100335.17
2023-03-30T08:10:21.575Z,100331.42
2023-03-30T08:12:49.863Z,100328.69
2023-03-30T08:15:18.030Z,100328.73
2023-03-30T08:17:46.524Z,100324.46
2023-03-30T08:20:15.127Z,100326.58
2023-03-30T08:22:43.178Z,100327.84
2023-03-30T08:25:12.035Z,100320.60
2023-03-30T08:27:40.356Z,100317.96
2023-03-30T08:30:08.870Z,100317.87
2023-03-30T08:32:37.155Z,100316.70
2023-03-30T08:35:05.817Z,100312.98
2023-03-30T08:37:33.939Z,100304.77
2023-03-30T08:40:02.262Z,100300.38
2023-03-30T08:43:18.669Z,100299.98
2023-03-30T08:45:47.594Z,100294.70
2023-03-30T08:48:29.165Z,100286.52
2023-03-30T08:51:31.574Z,100285.30
2023-03-30T08:54:02.868Z,100288.82
2023-03-30T08:56:40.092Z,100284.17
2023-03-30T08:59:27.293Z,100277.61
2023-03-30T09:02:04.223Z,100274.35
2023-03-30T09:05:02.320Z,100271.64
2023-03-30T09:07:37.552Z,100271.98
2023-03-30T09:10:12.206Z,100270.55
2023-03-30T09:12:48.670Z,100266.34
2023-03-30T09:15:25.664Z,100264.38
2023-03-30T09:18:11.018Z,100262.55
2023-03-30T09:20:40.915Z,100254.86
2023-03-30T09:23:14.730Z,100255.63
2023-03-30T09:25:51.522Z,100253.23
2023-03-30T09:28:44.807Z,100245.51
2023-03-30T09:31:36.199Z,100239.84
2023-03-30T09:34:35.422Z,100235.54
2023-03-30T09:37:13.353Z,100227.97
2023-03-30T09:39:42.099Z,100224.70
2023-03-30T09:42:45.018Z,100219.84
2023-03-30T09:45:34.523Z,100213.02
2023-03-30T09:48:09.583Z,100209.31
2023-03-30T09:50:46.917Z,100199.53
2023-03-30T09:53:27.747Z,100194.08
2023-03-30T09:56:07.502Z,100189.34
2023-03-30T09:58:36.306Z,100183.26
2023-03-30T10:01:13.113Z,100181.53
2023-03-30T10:03:43.560Z,100173.80
2023-03-30T10:06:13.425Z,100169.16
2023-03-30T10:08:51.525Z,100168.86
2023-03-30T10:11:22.334Z,100164.36
2023-03-30T10:13:51.765Z,100163.65
2023-03-30T10:16:28.385Z,100157.75
2023-03-30T10:19:01.897Z,100150.64
2023-03-30T10:21:52.881Z,100148.23
2023-03-30T10:24:23.838Z,100146.15
2023-03-30T10:26:58.218Z,100142.08
2023-03-30T10:29:28.970Z,100138.13
2023-03-30T10:32:08.933Z,100133.80
2023-03-30T10:34:43.800Z,100128.27
2023-03-30T10:37:16.854Z,100127.02
2023-03-30T10:39:48.230Z,100122.48
2023-03-30T10:42:23.754Z,100115.34
2023-03-30T10:44:55.232Z,100110.71
2023-03-30T10:47:54.055Z,100109.04
2023-03-30T10:50:30.596Z,100111.52
2023-03-30T10:53:07.998Z,100116.15
2023-03-30T10:55:39.365Z,100119.30
2023-03-30T10:58:20.231Z,100118.08
2023-03-30T11:00:54.476Z,100117.86
2023-03-30T11:03:27.500Z,100119.88
2023-03-30T11:06:19.000Z,100110.59
2023-03-30T11:08:50.877Z,100107.52
2023-03-30T11:11:28.236Z,100112.64
2023-03-30T11:14:02.271Z,100116.73
2023-03-30T11:17:12.113Z,100112.36
2023-03-30T11:19:47.280Z,100105.68
2023-03-30T11:22:32.961Z,100100.57
2023-03-30T11:25:07.517Z,100095.97
2023-03-30T11:27:46.508Z,100081.61
2023-03-30T11:30:40.934Z,100073.23
2023-03-30T11:33:32.464Z,100068.81
2023-03-30T11:36:03.696Z,100064.75
2023-03-30T11:38:57.217Z,100064.46
2023-03-30T11:41:38.276Z,100061.13
2023-03-30T11:44:09.849Z,100051.92
2023-03-30T11:46:47.302Z,100048.61
2023-03-30T11:49:24.850Z,100047.98
2023-03-30T11:52:11.978Z,100042.70
2023-03-30T11:55:01.834Z,100034.48
2023-03-30T11:57:43.104Z,100032.18
2023-03-30T12:00:23.966Z,100023.46
2023-03-30T12:03:24.680Z,100019.64
2023-03-30T12:06:00.418Z,100014.92
2023-03-30T12:08:53.464Z,100009.91
2023-03-30T12:11:31.917Z,100007.33
2023-03-30T12:14:01.751Z,100005.13
2023-03-30T12:16:40.859Z,100003.83
2023-03-30T12:19:29.292Z,99998.58
2023-03-30T12:22:04.747Z,99995.54
2023-03-30T12:24:39.053Z,99993.89
2023-03-30T12:27:11.793Z,99996.40
2023-03-30T12:30:01.828Z,99996.87
2023-03-30T12:32:31.455Z,99993.94
2023-03-30T12:35:00.102Z,99993.63
2023-03-30T12:37:36.300Z,99994.14
2023-03-30T12:40:20.998Z,99990.50
2023-03-30T12:43:19.091Z,99982.44
2023-03-30T12:46:02.520Z,99985.66
2023-03-30T12:48:30.817Z,99987.62
2023-03-30T12:51:11.586Z,99984.19
2023-03-30T12:54:19.103Z,99976.52
2023-03-30T12:57:10.716Z,99967.53
2023-03-30T13:00:07.565Z,99958.85
2023-03-30T13:02:36.954Z,99953.70
2023-03-30T13:05:24.403Z,99948.56
2023-03-30T13:07:55.757Z,99940.95
2023-03-30T13:10:29.949Z,99935.08
2023-03-30T13:13:01.686Z,99932.88
2023-03-30T13:15:29.722Z,99930.76
2023-03-30T13:18:04.077Z,99929.92
2023-03-30T13:20:47.523Z,99921.34
2023-03-30T13:23:15.934Z,99916.84
2023-03-30T13:25:49.723Z,99917.27
2023-03-30T13:28:46.176Z,99915.61
2023-03-30T13:31:29.729Z,99909.80
2023-03-30T13:34:17.166Z,99904.05
2023-03-30T13:37:00.101Z,99894.49
2023-03-30T13:40:09.402Z,99886.36
2023-03-30T13:42:49.714Z,99884.77
2023-03-30T13:45:43.312Z,99888.65
2023-03-30T13:48:39.663Z,99892.03
2023-03-30T13:51:14.351Z,99884.96
2023-03-30T13:53:49.609Z,99888.58
2023-03-30T13:56:19.672Z,99893.70
2023-03-30T13:58:54.804Z,99888.90
2023-03-30T14:01:24.612Z,99883.20
2023-03-30T14:04:03.321Z,99879.20
2023-03-30T14:06:34.518Z,99872.76
2023-03-30T14:09:05.787Z,99869.09
2023-03-30T14:12:02.681Z,99859.15
2023-03-30T14:14:41.823Z,99858.16
2023-03-30T14:17:22.152Z,99852.32
2023-03-30T14:20:21.024Z,99855.50
2023-03-30T14:22:50.498Z,99852.08
2023-03-30T14:25:25.730Z,99846.89
2023-03-30T14:27:56.893Z,99846.56
2023-03-30T14:30:31.880Z,99844.83
2023-03-30T14:33:09.056Z,99840.84
2023-03-30T14:35:44.306Z,99835.05
2023-03-30T14:38:25.789Z,99828.69
2023-03-30T14:40:54.869Z,99821.49
2023-03-30T14:43:25.916Z,99817.06
2023-03-30T14:45:56.828Z,99812.41
2023-03-30T14:48:31.638Z,99813.14
2023-03-30T14:51:02.686Z,99818.96
2023-03-30T14:53:31.521Z,99823.41
2023-03-30T14:56:01.092Z,99818.47
2023-03-30T14:58:32.931Z,99819.27
2023-03-30T15:01:06.161Z,99811.35
2023-03-30T15:03:38.504Z,99799.12
2023-03-30T15:06:08.165Z,99798.80
2023-03-30T15:08:40.988Z,99799.33
2023-03-30T15:11:13.191Z,99792.90
2023-03-30T15:13:48.397Z,99794.11
2023-03-30T15:16:22.188Z,99791.34
2023-03-30T15:18:53.311Z,99787.71
2023-03-30T15:21:21.969Z,99784.25
2023-03-30T15:23:51.183Z,99779.23
2023-03-30T15:26:19.737Z,99776.06
2023-03-30T15:28:57.837Z,99773.76
2023-03-30T15:31:28.173Z,99772.64
2023-03-30T15:33:59.896Z,99766.73
2023-03-30T15:36:34.195Z,99770.55
2023-03-30T15:39:03.721Z,99772.44
2023-03-30T15:41:54.998Z,99767.88
2023-03-30T15:44:23.297Z,99761.21
2023-03-30T15:46:55.685Z,99761.89
2023-03-30T15:49:31.462Z,99757.24
2023-03-30T15:52:02.112Z,99756.23
2023-03-30T15:54:38.941Z,99750.85
2023-03-30T15:57:14.804Z,99746.52
2023-03-30T15:59:52.258Z,99744.39
2023-03-30T16:02:38.370Z,99740.74
2023-03-30T16:05:16.716Z,99742.48
2023-03-30T16:07:45.495Z,99737.27
2023-03-30T16:10:20.802Z,99733.95
2023-03-30T16:12:49.710Z,99728.95
2023-03-30T16:15:21.805Z,99724.52
2023-03-30T16:17:51.777Z,99721.37
2023-03-30T16:20:25.742Z,99719.29
2023-03-30T16:22:54.368Z,99714.83
2023-03-30T16:25:41.752Z,99709.45
2023-03-30T16:28:17.942Z,99706.39
2023-03-30T16:30:50.127Z,99706.16
2023-03-30T16:33:18.570Z,99706.80
2023-03-30T16:35:46.712Z,99704.89
2023-03-30T16:38:17.877Z,99702.47
2023-03-30T16:40:50.714Z,99697.02
2023-03-30T16:43:19.042Z,99693.84
2023-03-30T16:45:47.236Z,99689.45
2023-03-30T16:48:16.406Z,99686.04
2023-03-30T16:50:52.439Z,99683.59
2023-03-30T16:53:20.934Z,99683.60
2023-03-30T16:55:49.524Z,99682.05
2023-03-30T16:58:17.603Z,99679.02
2023-03-30T17:00:48.832Z,99674.61
2023-03-30T17:03:19.031Z,99670.00
2023-03-30T17:05:51.493Z,99667.67
2023-03-30T17:08:23.622Z,99662.87
2023-03-30T17:10:53.508Z,99654.59
2023-03-30T17:13:22.355Z,99648.59
2023-03-30T17:15:50.989Z,99642.92
2023-03-30T17:18:26.288Z,99630.84
2023-03-30T17:20:56.856Z,99635.61
2023-03-30T17:23:28.010Z,99637.18
2023-03-30T17:25:59.370Z,99641.49
2023-03-30T17:28:30.175Z,99644.59
2023-03-30T17:31:01.683Z,99641.67
2023-03-30T17:33:32.186Z,99639.95
2023-03-30T17:36:04.307Z,99639.77
2023-03-30T17:38:32.919Z,99640.17
2023-03-30T17:41:01.581Z,99643.51
2023-03-30T17:43:29.811Z,99643.54
2023-03-30T17:45:58.591Z,99639.05
2023-03-30T17:48:27.558Z,99638.18
2023-03-30T17:50:55.787Z,99638.39
2023-03-30T17:53:23.976Z,99635.86
2023-03-30T17:55:55.310Z,99631.04
2023-03-30T17:58:32.928Z,99628.14
2023-03-30T18:01:04.231Z,99625.05
2023-03-30T18:03:34.581Z,99623.54
2023-03-30T18:06:03.274Z,99620.08
2023-03-30T18:08:31.624Z,99621.69
2023-03-30T18:11:00.989Z,99621.70
2023-03-30T18:13:30.571Z,99620.15
2023-03-30T18:16:00.861Z,99621.05
2023-03-30T18:18:31.166Z,99620.36
2023-03-30T18:21:05.076Z,99620.91
2023-03-30T18:23:34.585Z,99618.81
2023-03-30T18:26:10.337Z,99613.80
2023-03-30T18:28:44.102Z,99604.92
2023-03-30T18:31:13.133Z,99602.10
2023-03-30T18:33:41.643Z,99600.64
2023-03-30T18:36:12.948Z,99599.20
2023-03-30T18:38:42.600Z,99596.96
2023-03-30T18:41:12.936Z,99599.74
2023-03-30T18:43:41.111Z,99598.20
2023-03-30T18:46:13.196Z,99602.85
2023-03-30T18:48:41.381Z,99604.77
2023-03-30T18:51:12.255Z,99597.85
2023-03-30T18:53:41.531Z,99596.09
2023-03-30T18:56:12.435Z,99593.98
2023-03-30T18:58:42.211Z,99592.39
2023-03-30T19:01:13.563Z,99589.06
2023-03-30T19:03:42.902Z,99584.70
2023-03-30T19:06:16.459Z,99579.67
2023-03-30T19:08:44.719Z,99574.80
2023-03-30T19:11:18.598Z,99569.04
2023-03-30T19:13:47.325Z,99569.69
2023-03-30T19:16:18.876Z,99565.94
2023-03-30T19:18:49.419Z,99575.94
2023-03-30T19:21:18.728Z,99573.09
2023-03-30T19:23:47.022Z,99575.71
2023-03-30T19:26:15.823Z,99573.54
2023-03-30T19:28:44.413Z,99568.32
2023-03-30T19:31:16.041Z,99567.80
2023-03-30T19:33:44.547Z,99565.84
2023-03-30T19:36:13.098Z,99562.30
2023-03-30T19:38:44.096Z,99566.27
2023-03-30T19:41:12.785Z,99571.60
2023-03-30T19:43:42.631Z,99571.70
2023-03-30T19:46:12.116Z,99571.65
2023-03-30T19:52:02.803Z,99569.73
2023-03-30T19:54:31.464Z,99569.15
2023-03-30T19:56:59.712Z,99570.26
2023-03-30T19:59:28.873Z,99568.80
2023-03-30T20:01:57.434Z,99569.39
2023-03-30T20:04:25.709Z,99570.99
2023-03-30T20:09:49.452Z,99572.33
2023-03-30T20:12:17.561Z,99569.42
2023-03-30T20:14:46.074Z,99568.61
2023-03-30T20:52:14.947Z,99532.14
2023-03-30T20:54:44.409Z,99525.05
2023-03-30T20:57:12.604Z,99528.20
2023-03-30T20:59:41.314Z,99525.88
2023-03-30T21:02:11.680Z,99522.30
2023-03-30T21:04:39.990Z,99524.89
2023-03-30T21:07:10.946Z,99520.67
2023-03-30T21:09:40.091Z,99521.13
2023-03-30T21:12:09.771Z,99514.84
2023-03-30T21:14:38.000Z,99513.52
2023-03-30T21:17:06.251Z,99513.52
2023-03-30T21:19:34.556Z,99512.77
2023-03-30T21:22:02.770Z,99513.36
2023-03-30T21:24:31.439Z,99520.13
2023-03-30T21:26:59.680Z,99515.94
2023-03-30T21:29:28.175Z,99519.78
2023-03-30T21:31:57.802Z,99518.64
2023-03-30T21:34:26.100Z,99513.16
2023-03-30T21:36:54.403Z,99511.77
2023-03-30T21:39:23.927Z,99517.41
2023-03-30T21:41:52.070Z,99511.52
2023-03-30T21:44:20.402Z,99510.21
2023-03-30T21:46:48.650Z,99510.66
2023-03-30T21:49:17.258Z,99514.19
2023-03-30T21:51:46.135Z,99514.17
2023-03-30T21:54:14.929Z,99513.97
2023-03-30T21:56:46.178Z,99511.71
2023-03-30T21:59:14.320Z,99513.35
2023-03-30T22:01:42.640Z,99506.27
2023-03-30T22:04:10.962Z,99509.66
2023-03-30T22:06:39.454Z,99512.64
2023-03-30T22:09:07.753Z,99509.59
2023-03-30T22:11:36.050Z,99505.60
2023-03-30T22:14:04.273Z,99505.84
2023-03-30T22:16:33.314Z,99508.82
2023-03-30T22:19:01.906Z,99509.73
2023-03-30T22:21:34.640Z,99514.73
2023-03-30T22:24:06.763Z,99512.88
2023-03-30T22:26:35.707Z,99507.85
2023-03-30T22:29:05.444Z,99510.29
2023-03-30T22:31:33.997Z,99515.17
2023-03-30T22:34:02.366Z,99512.25
2023-03-30T22:36:31.396Z,99515.36
2023-03-30T22:39:01.802Z,99516.74
2023-03-30T22:41:30.560Z,99517.42
2023-03-30T22:43:59.227Z,99513.92
2023-03-30T22:46:28.134Z,99511.96
2023-03-30T22:48:56.551Z,99513.01
2023-03-30T22:51:28.217Z,99512.98
2023-03-30T22:53:58.699Z,99513.72
2023-03-30T22:56:29.387Z,99519.77
2023-03-30T22:58:59.974Z,99512.88
2023-03-30T23:01:32.650Z,99515.88
2023-03-30T23:04:01.314Z,99514.52
2023-03-30T23:06:29.660Z,99514.69
2023-03-30T23:08:57.980Z,99510.16
2023-03-30T23:11:26.505Z,99514.15
2023-03-30T23:13:55.865Z,99507.23
2023-03-30T23:16:24.384Z,99508.63
2023-03-30T23:18:52.621Z,99506.09
2023-03-30T23:21:22.373Z,99507.30
2023-03-30T23:23:51.126Z,99502.30
2023-03-30T23:26:19.745Z,99501.09
2023-03-30T23:28:48.227Z,99506.51
2023-03-30T23:31:17.818Z,99503.05
2023-03-30T23:33:46.301Z,99500.11
2023-03-30T23:36:17.387Z,99506.36
2023-03-30T23:38:46.780Z,99504.57
2023-03-30T23:41:18.290Z,99505.74
2023-03-30T23:43:47.024Z,99513.00
2023-03-30T23:46:16.031Z,99511.44
2023-03-30T23:48:44.658Z,99517.02
2023-03-30T23:51:12.895Z,99511.30
2023-03-30T23:53:41.774Z,99506.30
2023-03-30T23:56:17.570Z,99501.10
2023-03-30T23:58:46.648Z,99500.77
